Terminal Aerodrome Forecast
Issued by NWS Wilmington, OH

Current Version | Previous Version | Text Only | Print | Product List | Glossary Off
Versions: 1 2 3 4 5 6 7 8 9 10 11 12 13 14 15 16 17 18 19 20 21 22 23 24 25 26

000
FTUS41 KILN 040131 AAA
TAFILN
TAF AMD
KILN 040131Z 0402/0424 25005KT P6SM BKN040 OVC080
     FM040500 22005KT P6SM FEW050 SCT090
     FM041100 22009KT P6SM BKN080
     FM041500 24014G24KT 4SM -SHRA OVC040
     FM041900 24014G24KT 4SM -SHRA BR VCTS SCT015 OVC025CB
     FM042200 32016G26KT P6SM VCSH BKN015 OVC022=

USA.gov is the U.S. government's official web portal to all federal, state and local government web resources and services.